This is the latest recevied weather packets stored in our database for station/object W4MLN-1. If no packets are shown the sender has not sent any weather packets the latest 10 day(s).
| Time | Temp. | Humidity | Pressure | Rain* | Wind** | Luminosity | Snow |
|---|---|---|---|---|---|---|---|
| 1777942208 | 17.78° C | 48% | 1014 hPa | 0 mm | - | 0 W/m² | - |
| 1777941906 | 17.78° C | 49% | 1013.8 hPa | 0 mm | - | 0 W/m² | - |
| 1777941606 | 17.78° C | 48% | 1013.8 hPa | 0 mm | - | 0 W/m² | - |
| 1777941304 | 17.78° C | 47% | 1013.7 hPa | 0 mm | - | 0 W/m² | - |
| 1777941004 | 17.78° C | 48% | 1013.6 hPa | 0 mm | - | 0 W/m² | - |
| 1777940703 | 17.78° C | 48% | 1013.5 hPa | 0 mm | - | 0 W/m² | - |
| 1777940404 | 18.33° C | 48% | 1013.5 hPa | 0 mm | - | 3 W/m² | - |
| 1777940103 | 18.33° C | 47% | 1013.5 hPa | 0 mm | - | 4 W/m² | - |
| 1777939804 | 18.33° C | 46% | 1013.5 hPa | 0 mm | - | 7 W/m² | - |
| 1777939504 | 18.89° C | 46% | 1013.5 hPa | 0 mm | - | 10 W/m² | - |
| 1777939204 | 18.89° C | 48% | 1013.6 hPa | 0 mm | - | 13 W/m² | - |
| 1777938904 | 18.89° C | 48% | 1013.6 hPa | 0 mm | - | 16 W/m² | - |
| 1777938603 | 18.89° C | 47% | 1013.5 hPa | 0 mm | - | 19 W/m² | - |
| 1777938301 | 19.44° C | 46% | 1013.5 hPa | 0 mm | - | 21 W/m² | - |
| 1777938000 | 19.44° C | 46% | 1013.4 hPa | 0 mm | - | 27 W/m² | - |
| 1777937701 | 19.44° C | 46% | 1013.4 hPa | 0 mm | - | 34 W/m² | - |
| 1777937400 | 19.44° C | 45% | 1013.4 hPa | 0 mm | - | 39 W/m² | - |
| 1777937101 | 19.44° C | 46% | 1013.4 hPa | 0 mm | - | 47 W/m² | - |
| 1777936802 | 20° C | 45% | 1013.3 hPa | 0 mm | - | 51 W/m² | - |
| 1777936501 | 20° C | 46% | 1013.3 hPa | 0 mm | - | 64 W/m² | - |
| 1777936202 | 20.56° C | 44% | 1013.3 hPa | 0 mm | - | 57 W/m² | - |
| 1777935901 | 20.56° C | 44% | 1013.2 hPa | 0 mm | - | 86 W/m² | - |
| 1777935602 | 20.56° C | 44% | 1013.3 hPa | 0 mm | - | 118 W/m² | - |
| 1777935298 | 20.56° C | 44% | 1013.3 hPa | 0 mm | - | 133 W/m² | - |
| 1777934999 | 20° C | 45% | 1013.3 hPa | 0 mm | - | 198 W/m² | - |
* Rain latest hour (hover to see other rain measurements)
** Current wind speed in m/s (hover to see current wind gust speed)